Time;durP1;ratioP1;P1;durP2;ratioP2;P2;SDS_P1;SDS_P2;PMS_P1;PMS_P2;Temp;Humidity;BMP_temperature;BMP_pressure;BME280_temperature;BME280_humidity;BME280_pressure;Samples;Min_cycle;Max_cycle;Signal;HPM_P1;HPM_P2
2021/09/27 05:38:17;;;;;;;22.98;15.93;;;18.90;79.30;;;;;;4715214;30;20152;-71
2021/09/27 05:40:57;;;;;;;21.55;17.02;;;18.90;79.50;;;;;;4717926;30;20065;-71
2021/09/27 05:43:49;;;;;;;22.85;16.98;;;18.90;79.60;;;;;;4718998;30;20089;-71
2021/09/27 05:46:31;;;;;;;22.95;18.55;;;18.90;79.70;;;;;;4732128;30;20426;-71
2021/09/27 05:49:04;;;;;;;22.90;18.35;;;18.90;80.30;;;;;;4719362;30;20057;-70
2021/09/27 05:51:35;;;;;;;24.38;18.75;;;18.90;79.80;;;;;;4718830;30;20053;-71
2021/09/27 05:54:16;;;;;;;27.27;18.23;;;18.90;79.90;;;;;;4718950;30;20489;-70
2021/09/27 05:56:55;;;;;;;25.40;17.80;;;18.90;80.00;;;;;;4718654;30;20061;-73
2021/09/27 05:59:31;;;;;;;27.75;21.23;;;18.90;79.90;;;;;;4718871;30;20136;-74
2021/09/27 06:02:19;;;;;;;28.60;20.63;;;18.90;80.00;;;;;;4718852;30;20088;-70
2021/09/27 06:05:21;;;;;;;27.75;19.25;;;18.90;79.90;;;;;;4718357;30;20402;-70
2021/09/27 06:07:52;;;;;;;26.98;20.45;;;18.80;79.80;;;;;;4718947;30;20132;-70
2021/09/27 06:10:33;;;;;;;25.90;20.88;;;18.80;79.90;;;;;;4718818;30;20061;-70
2021/09/27 06:13:18;;;;;;;28.00;21.23;;;18.80;79.90;;;;;;4718470;30;20147;-70
2021/09/27 06:15:49;;;;;;;25.15;21.67;;;18.80;79.80;;;;;;4718902;30;20061;-70
2021/09/27 06:18:39;;;;;;;26.30;20.88;;;18.80;79.80;;;;;;4721139;30;20053;-70
2021/09/27 06:21:32;;;;;;;29.15;22.40;;;18.80;79.70;;;;;;4721969;30;20084;-70
2021/09/27 06:24:29;;;;;;;27.53;21.60;;;18.80;79.80;;;;;;4721701;30;20063;-70
2021/09/27 06:27:36;;;;;;;30.30;22.38;;;18.80;79.80;;;;;;4721802;30;20323;-70
2021/09/27 06:30:36;;;;;;;28.20;22.15;;;18.80;79.80;;;;;;4699968;30;20182;-70
2021/09/27 06:33:17;;;;;;;30.92;23.63;;;18.70;79.90;;;;;;4721399;30;20084;-70
2021/09/27 06:35:45;;;;;;;28.13;22.67;;;18.70;79.90;;;;;;4720462;30;20132;-70
2021/09/27 06:38:13;;;;;;;33.22;25.05;;;18.70;80.10;;;;;;4720744;30;20144;-70
2021/09/27 06:40:48;;;;;;;33.72;24.73;;;18.70;80.10;;;;;;4721569;30;20449;-70
2021/09/27 06:43:18;;;;;;;31.20;24.48;;;18.70;80.20;;;;;;4721330;30;20060;-70
2021/09/27 06:45:44;;;;;;;31.27;24.02;;;18.70;80.30;;;;;;4721408;30;20132;-70
2021/09/27 06:48:09;;;;;;;31.80;24.52;;;18.70;80.30;;;;;;4721281;30;20144;-70
2021/09/27 06:50:35;;;;;;;32.50;25.67;;;18.70;80.20;;;;;;4721204;30;20061;-70
2021/09/27 06:53:01;;;;;;;35.50;27.35;;;18.70;80.30;;;;;;4721099;30;20119;-70
2021/09/27 06:55:27;;;;;;;34.42;25.65;;;18.70;80.30;;;;;;4721676;30;20480;-69
2021/09/27 06:57:53;;;;;;;33.35;26.20;;;18.70;80.40;;;;;;4721524;30;20408;-70
2021/09/27 07:00:19;;;;;;;33.72;25.98;;;18.70;80.40;;;;;;4721379;30;20045;-70
2021/09/27 07:02:44;;;;;;;40.13;27.55;;;18.70;80.50;;;;;;4720707;30;20148;-70
2021/09/27 07:05:11;;;;;;;37.08;27.23;;;18.70;80.50;;;;;;4720835;30;20085;-69
2021/09/27 07:07:38;;;;;;;33.17;25.00;;;18.70;80.50;;;;;;4721044;30;20049;-70
2021/09/27 07:10:06;;;;;;;34.65;26.05;;;18.70;80.60;;;;;;4721856;30;20119;-70
2021/09/27 07:12:32;;;;;;;33.90;26.88;;;18.70;80.70;;;;;;4721016;30;20053;-70
2021/09/27 07:14:58;;;;;;;36.97;27.08;;;18.70;80.70;;;;;;4720958;30;20140;-70
2021/09/27 07:17:23;;;;;;;35.00;26.90;;;18.70;80.70;;;;;;4721564;30;20147;-70
2021/09/27 07:19:49;;;;;;;33.83;26.38;;;18.70;80.70;;;;;;4720738;30;20057;-70
2021/09/27 07:22:15;;;;;;;34.75;26.77;;;18.70;80.70;;;;;;4720060;30;20049;-76
2021/09/27 07:24:41;;;;;;;39.83;26.42;;;18.70;80.60;;;;;;4720862;30;20075;-70
2021/09/27 07:27:06;;;;;;;38.75;26.50;;;18.70;81.00;;;;;;4720519;30;20049;-69
2021/09/27 07:29:32;;;;;;;33.50;26.05;;;18.70;81.20;;;;;;4720066;30;20521;-70
2021/09/27 07:31:58;;;;;;;33.95;26.35;;;18.70;81.30;;;;;;4721007;30;20052;-70
2021/09/27 07:34:23;;;;;;;32.72;23.73;;;18.70;81.40;;;;;;4720400;30;20061;-70
2021/09/27 07:36:49;;;;;;;29.30;23.02;;;18.70;81.50;;;;;;4720497;30;20128;-70
2021/09/27 07:39:15;;;;;;;32.85;24.55;;;18.70;81.50;;;;;;4720287;30;20450;-71
2021/09/27 07:41:41;;;;;;;33.33;22.75;;;18.80;82.40;;;;;;4721244;30;20067;-70
2021/09/27 07:44:07;;;;;;;31.48;24.73;;;18.80;81.70;;;;;;4719002;30;20085;-70
2021/09/27 07:46:34;;;;;;;32.08;22.65;;;18.80;81.60;;;;;;4719808;30;20099;-70
2021/09/27 07:49:00;;;;;;;30.70;23.00;;;18.80;81.50;;;;;;4720466;30;20096;-70
2021/09/27 07:51:27;;;;;;;30.60;22.45;;;18.90;81.50;;;;;;4720418;30;20100;-70
2021/09/27 07:53:53;;;;;;;34.10;22.75;;;18.90;81.50;;;;;;4733157;30;20397;-70
2021/09/27 07:56:19;;;;;;;32.63;22.42;;;18.90;81.40;;;;;;4720597;30;20053;-70
2021/09/27 07:58:45;;;;;;;28.92;21.08;;;18.90;81.30;;;;;;4720989;30;20405;-70
2021/09/27 08:01:13;;;;;;;30.13;20.70;;;18.90;81.30;;;;;;4720725;30;20049;-70
2021/09/27 08:03:39;;;;;;;31.83;21.92;;;18.90;81.20;;;;;;4706237;30;20068;-73
2021/09/27 08:06:05;;;;;;;29.77;22.33;;;18.90;81.10;;;;;;4720295;30;20061;-70
2021/09/27 08:08:30;;;;;;;35.92;26.30;;;18.90;81.00;;;;;;4718909;30;20366;-70
2021/09/27 08:10:58;;;;;;;36.92;27.30;;;19.00;80.60;;;;;;4719973;30;20063;-72
2021/09/27 08:13:25;;;;;;;34.63;26.85;;;19.00;80.50;;;;;;4719209;30;20055;-69
2021/09/27 08:15:54;;;;;;;34.10;26.13;;;19.00;80.70;;;;;;4705015;30;20092;-71
2021/09/27 08:18:22;;;;;;;41.80;29.52;;;18.90;80.50;;;;;;4719761;30;20049;-75
2021/09/27 08:21:01;;;;;;;38.03;28.00;;;18.90;80.90;;;;;;4719261;30;20057;-72
2021/09/27 08:23:27;;;;;;;42.67;29.05;;;18.90;81.50;;;;;;4717385;30;20056;-74
2021/09/27 08:25:54;;;;;;;38.85;28.95;;;18.90;81.50;;;;;;4731428;30;20049;-76
2021/09/27 08:28:23;;;;;;;39.65;28.10;;;18.90;81.40;;;;;;4720847;30;20348;-74
2021/09/27 08:30:55;;;;;;;37.40;27.38;;;18.90;81.40;;;;;;4715984;30;20128;-74
2021/09/27 08:33:27;;;;;;;37.40;26.48;;;18.80;81.30;;;;;;4687951;30;20053;-76
2021/09/27 08:35:55;;;;;;;39.58;25.85;;;18.80;81.30;;;;;;4712213;30;20494;-76
2021/09/27 08:38:24;;;;;;;36.90;26.55;;;18.80;81.40;;;;;;4736351;30;20079;-72
2021/09/27 08:40:58;;;;;;;38.40;27.30;;;18.80;81.30;;;;;;4736772;30;20135;-69
2021/09/27 08:44:02;;;;;;;36.28;27.10;;;18.80;81.50;;;;;;4737048;30;20122;-69
2021/09/27 08:46:49;;;;;;;40.88;27.27;;;18.80;81.70;;;;;;4723518;30;20056;-69
2021/09/27 08:49:34;;;;;;;37.05;27.45;;;18.80;81.30;;;;;;4719061;30;20053;-70
2021/09/27 08:52:00;;;;;;;36.95;27.25;;;18.80;81.50;;;;;;4719220;30;20056;-69
2021/09/27 08:54:29;;;;;;;41.45;27.27;;;18.80;81.60;;;;;;4719351;30;20068;-70
2021/09/27 08:57:09;;;;;;;38.33;27.75;;;18.80;81.50;;;;;;4718944;30;20474;-73
2021/09/27 08:59:47;;;;;;;39.38;26.80;;;18.80;81.60;;;;;;4719228;30;20063;-73
2021/09/27 09:02:52;;;;;;;40.38;27.80;;;18.80;81.70;;;;;;4719197;30;20446;-70
2021/09/27 09:05:36;;;;;;;38.80;28.52;;;18.80;81.80;;;;;;4718018;30;20489;-68
2021/09/27 09:08:05;;;;;;;42.42;29.50;;;18.80;81.90;;;;;;4719118;30;20440;-68
2021/09/27 09:10:58;;;;;;;45.67;30.13;;;18.80;81.80;;;;;;4719076;30;20068;-69
2021/09/27 09:13:34;;;;;;;41.53;28.73;;;18.90;81.80;;;;;;4736359;30;20126;-68
2021/09/27 09:16:04;;;;;;;36.90;27.50;;;18.90;81.70;;;;;;4728438;30;20480;-69
2021/09/27 09:18:39;;;;;;;37.60;27.90;;;18.90;81.80;;;;;;4719121;30;20056;-69
2021/09/27 09:21:19;;;;;;;36.45;27.10;;;18.90;82.50;;;;;;4719166;30;20053;-69
2021/09/27 09:23:51;;;;;;;36.08;25.95;;;18.90;81.90;;;;;;4719451;30;20060;-71
2021/09/27 09:26:24;;;;;;;37.60;28.88;;;18.90;81.90;;;;;;4718460;30;20085;-69
2021/09/27 09:28:52;;;;;;;31.75;24.00;;;19.00;81.80;;;;;;4719153;30;20072;-67
2021/09/27 09:31:24;;;;;;;34.28;24.95;;;18.90;81.80;;;;;;4719023;30;20104;-68
2021/09/27 09:34:00;;;;;;;32.58;24.48;;;18.90;81.90;;;;;;4718985;30;20052;-68
2021/09/27 09:36:31;;;;;;;31.73;23.95;;;18.90;81.90;;;;;;4718221;30;20093;-68
2021/09/27 09:39:10;;;;;;;28.75;22.83;;;18.90;81.90;;;;;;4718313;30;20105;-68
2021/09/27 09:41:50;;;;;;;31.08;22.27;;;18.90;81.90;;;;;;4718637;30;20064;-67
2021/09/27 09:44:38;;;;;;;27.52;21.55;;;19.00;81.90;;;;;;4718911;30;20373;-67
2021/09/27 09:47:08;;;;;;;26.42;21.35;;;19.00;81.80;;;;;;4704204;30;20053;-68
2021/09/27 09:50:11;;;;;;;23.85;19.35;;;19.00;81.80;;;;;;4701250;30;20089;-67
2021/09/27 09:52:53;;;;;;;22.30;18.02;;;19.00;81.80;;;;;;4702810;30;20561;-68
2021/09/27 09:55:22;;;;;;;24.42;18.98;;;19.00;81.80;;;;;;4706682;30;20049;-69
2021/09/27 09:58:25;;;;;;;22.88;17.50;;;19.00;81.80;;;;;;4722399;30;20045;-73
2021/09/27 10:00:50;;;;;;;20.15;18.02;;;19.10;81.90;;;;;;4695330;30;20060;-70
2021/09/27 10:03:28;;;;;;;19.20;17.17;;;19.10;81.60;;;;;;4709992;30;20050;-73
2021/09/27 10:06:02;;;;;;;19.33;17.25;;;19.10;81.60;;;;;;4704894;30;20046;-73
2021/09/27 10:08:28;;;;;;;27.77;16.13;;;19.10;81.80;;;;;;4704607;30;20369;-72
2021/09/27 10:10:58;;;;;;;19.42;15.77;;;19.10;81.90;;;;;;4704689;30;20378;-73
2021/09/27 10:13:39;;;;;;;21.08;16.85;;;19.10;82.10;;;;;;4701145;30;20088;-74
2021/09/27 10:16:09;;;;;;;17.95;16.08;;;19.20;82.60;;;;;;4722166;30;20444;-72
2021/09/27 10:18:38;;;;;;;20.00;16.50;;;19.20;82.70;;;;;;4721983;30;20132;-72
2021/09/27 10:21:09;;;;;;;18.50;15.57;;;19.20;82.60;;;;;;4721877;30;20056;-73
2021/09/27 10:23:40;;;;;;;18.00;15.30;;;19.30;82.00;;;;;;4708542;30;20049;-73
2021/09/27 10:26:16;;;;;;;19.83;15.25;;;19.30;82.00;;;;;;4704393;30;20057;-72
2021/09/27 10:28:43;;;;;;;16.88;15.07;;;19.40;81.90;;;;;;4704542;30;20057;-72
2021/09/27 10:31:10;;;;;;;16.75;13.90;;;19.40;81.30;;;;;;4704699;30;20140;-72
2021/09/27 10:33:45;;;;;;;18.33;13.02;;;19.40;81.00;;;;;;4716756;30;20470;-72
2021/09/27 10:36:17;;;;;;;15.68;12.32;;;19.40;80.60;;;;;;4721729;30;20108;-73
2021/09/27 10:38:45;;;;;;;20.15;12.63;;;19.40;80.80;;;;;;4716497;30;20092;-70
2021/09/27 10:41:26;;;;;;;15.18;13.32;;;19.40;81.10;;;;;;4704413;30;20062;-72
2021/09/27 10:44:18;;;;;;;15.95;13.20;;;19.50;80.80;;;;;;4703619;30;20229;-71
2021/09/27 10:46:48;;;;;;;15.40;12.65;;;19.50;80.70;;;;;;4704171;30;20132;-72
2021/09/27 10:49:21;;;;;;;16.25;12.82;;;19.50;80.90;;;;;;4689019;30;20433;-72
2021/09/27 10:51:53;;;;;;;16.00;13.43;;;19.50;80.80;;;;;;4704262;30;20129;-70
2021/09/27 10:54:25;;;;;;;14.27;12.50;;;19.60;80.60;;;;;;4704037;30;20144;-72
2021/09/27 10:56:56;;;;;;;14.80;13.27;;;19.60;80.10;;;;;;4703294;30;20061;-72
2021/09/27 10:59:35;;;;;;;14.57;12.93;;;19.60;79.90;;;;;;4703784;30;20057;-71
2021/09/27 11:02:21;;;;;;;15.70;13.57;;;19.60;80.00;;;;;;4705592;30;20125;-69
2021/09/27 11:04:54;;;;;;;14.82;12.30;;;19.60;80.40;;;;;;4689999;30;20434;-69
2021/09/27 11:07:34;;;;;;;17.15;14.18;;;19.60;80.20;;;;;;4703922;30;20093;-68
2021/09/27 11:10:00;;;;;;;13.75;11.27;;;19.60;80.40;;;;;;4703888;30;20058;-69
2021/09/27 11:12:41;;;;;;;16.73;12.45;;;19.60;80.50;;;;;;4703863;30;20136;-68
2021/09/27 11:15:22;;;;;;;16.15;11.88;;;19.70;80.90;;;;;;4706520;30;20131;-72
2021/09/27 11:18:01;;;;;;;15.15;13.15;;;19.60;81.60;;;;;;4720152;30;20446;-71
2021/09/27 11:20:47;;;;;;;15.68;12.60;;;19.80;80.20;;;;;;4720195;30;20061;-70
2021/09/27 11:23:37;;;;;;;16.23;12.50;;;19.90;80.00;;;;;;4720682;30;20422;-72
2021/09/27 11:26:06;;;;;;;15.80;11.80;;;19.90;79.60;;;;;;4711364;30;20053;-70
2021/09/27 11:28:46;;;;;;;15.98;12.68;;;19.90;79.90;;;;;;4703097;30;20058;-71
2021/09/27 11:31:17;;;;;;;12.02;9.85;;;20.00;79.40;;;;;;4703339;30;20549;-68
2021/09/27 11:33:49;;;;;;;13.15;9.68;;;20.00;79.80;;;;;;4703253;30;20079;-66
2021/09/27 11:36:15;;;;;;;14.80;10.73;;;19.90;80.00;;;;;;4712459;30;20465;-75
2021/09/27 11:38:45;;;;;;;13.45;11.00;;;20.00;79.90;;;;;;4720386;30;20072;-72
2021/09/27 11:41:10;;;;;;;13.63;10.68;;;20.00;79.60;;;;;;4720416;30;20480;-74
2021/09/27 11:43:58;;;;;;;15.80;11.05;;;20.10;79.50;;;;;;4720866;30;20053;-73
2021/09/27 11:46:28;;;;;;;13.55;10.65;;;20.10;78.90;;;;;;4704070;30;20065;-75
2021/09/27 11:52:06;;;;;;;13.35;9.60;;;20.20;79.10;;;;;;4720230;30;20057;-73
2021/09/27 11:55:08;;;;;;;13.75;9.07;;;20.10;79.50;;;;;;4720678;30;20369;-73
2021/09/27 11:57:46;;;;;;;14.80;8.80;;;20.20;78.70;;;;;;4686632;30;20466;-74
2021/09/27 12:00:18;;;;;;;11.48;8.18;;;20.20;78.80;;;;;;4703021;30;20053;-74
2021/09/27 12:02:59;;;;;;;9.15;8.02;;;20.20;78.70;;;;;;4703596;30;20048;-73
2021/09/27 12:05:45;;;;;;;12.57;7.53;;;20.20;77.60;;;;;;4711613;30;20078;-74
2021/09/27 12:08:27;;;;;;;9.10;7.80;;;20.10;78.80;;;;;;4702699;30;20108;-74
2021/09/27 12:11:00;;;;;;;30.73;11.75;;;20.10;78.30;;;;;;4702766;30;20084;-75
2021/09/27 12:13:47;;;;;;;17.10;9.00;;;20.20;77.70;;;;;;4702661;30;20167;-77
2021/09/27 12:16:29;;;;;;;11.40;8.18;;;20.10;78.50;;;;;;4702489;30;20065;-76
2021/09/27 12:19:00;;;;;;;11.43;8.43;;;20.20;78.20;;;;;;4687688;30;20054;-72
2021/09/27 12:21:37;;;;;;;15.02;7.85;;;20.20;78.60;;;;;;4702687;30;20057;-68
2021/09/27 12:24:14;;;;;;;15.13;8.15;;;20.20;78.10;;;;;;4719848;30;20417;-70
2021/09/27 12:26:51;;;;;;;10.57;6.50;;;20.20;77.60;;;;;;4719746;30;20063;-72
2021/09/27 12:29:22;;;;;;;10.35;6.80;;;20.20;77.50;;;;;;4719512;30;20057;-72
2021/09/27 12:32:07;;;;;;;13.68;6.63;;;20.20;77.30;;;;;;4719974;30;20045;-73
2021/09/27 12:34:46;;;;;;;10.55;6.03;;;20.20;77.40;;;;;;4718161;30;20061;-72
2021/09/27 12:37:16;;;;;;;8.05;6.45;;;20.20;76.40;;;;;;4718821;30;20140;-72
2021/09/27 12:39:44;;;;;;;7.65;5.72;;;20.20;76.50;;;;;;4720072;30;20097;-72
2021/09/27 12:42:28;;;;;;;9.50;5.47;;;20.20;76.60;;;;;;4719527;30;20057;-72
2021/09/27 12:44:55;;;;;;;;;;;20.20;76.70;;;;;;4719922;30;20060;-72
2021/09/27 12:47:22;;;;;;;8.70;5.38;;;20.20;77.00;;;;;;4718983;30;19937;-72
2021/09/27 12:49:56;;;;;;;10.15;5.93;;;20.20;76.90;;;;;;4719728;30;20053;-68
2021/09/27 12:52:56;;;;;;;5.53;4.45;;;20.20;76.80;;;;;;4719510;30;20529;-68
2021/09/27 12:55:26;;;;;;;6.85;4.57;;;20.20;77.30;;;;;;4719409;30;20049;-68
2021/09/27 12:57:55;;;;;;;5.90;4.80;;;20.20;77.70;;;;;;4718975;30;20067;-68
2021/09/27 13:00:35;;;;;;;10.70;4.68;;;20.10;77.90;;;;;;4719744;30;20409;-68
2021/09/27 13:03:07;;;;;;;10.25;4.43;;;20.10;78.10;;;;;;4718763;30;20156;-68
2021/09/27 13:06:02;;;;;;;7.05;4.35;;;20.20;78.50;;;;;;4719154;30;20067;-70
2021/09/27 13:08:52;;;;;;;7.05;4.80;;;20.20;78.60;;;;;;4718893;30;20151;-68
2021/09/27 13:11:33;;;;;;;7.18;4.03;;;20.20;78.80;;;;;;4719292;30;20053;-68
2021/09/27 13:14:17;;;;;;;7.80;4.43;;;20.20;79.00;;;;;;4718313;30;20048;-68
2021/09/27 13:16:46;;;;;;;7.03;4.30;;;20.20;79.10;;;;;;4713916;30;20045;-68
2021/09/27 13:19:33;;;;;;;8.02;4.55;;;20.20;79.20;;;;;;4718620;30;20070;-71
2021/09/27 13:21:59;;;;;;;9.20;4.68;;;20.20;79.20;;;;;;4719747;30;20067;-69
2021/09/27 13:24:29;;;;;;;9.57;4.50;;;20.20;79.30;;;;;;4718601;30;20053;-68
2021/09/27 13:27:10;;;;;;;8.27;4.45;;;20.20;79.30;;;;;;4718158;30;20142;-68
2021/09/27 13:29:49;;;;;;;10.95;4.75;;;20.20;79.30;;;;;;4718862;30;20367;-68
2021/09/27 13:32:18;;;;;;;9.40;4.68;;;20.20;79.30;;;;;;4718929;30;20417;-68
2021/09/27 13:34:55;;;;;;;9.68;4.28;;;20.20;79.40;;;;;;4719283;30;20136;-68
2021/09/27 13:37:29;;;;;;;10.68;4.82;;;20.20;79.40;;;;;;4718479;30;20145;-68
2021/09/27 13:40:01;;;;;;;10.25;4.68;;;20.20;79.40;;;;;;4719077;30;20141;-71
2021/09/27 13:43:04;;;;;;;9.93;4.75;;;20.20;79.40;;;;;;4718653;30;20057;-68
2021/09/27 13:45:37;;;;;;;8.35;4.25;;;20.20;79.30;;;;;;4712249;30;20065;-68
2021/09/27 13:48:03;;;;;;;10.65;4.38;;;20.30;79.40;;;;;;4719177;30;20053;-68
2021/09/27 13:50:29;;;;;;;7.50;4.57;;;20.20;79.30;;;;;;4719054;30;20115;-68
2021/09/27 13:53:19;;;;;;;9.52;4.47;;;20.20;79.20;;;;;;4718672;30;20474;-68
2021/09/27 13:55:47;;;;;;;8.23;3.88;;;20.30;79.10;;;;;;4718796;30;20136;-68
2021/09/27 13:58:13;;;;;;;5.80;4.03;;;20.30;79.20;;;;;;4718984;30;20057;-69
2021/09/27 14:00:39;;;;;;;9.70;4.57;;;20.30;79.20;;;;;;4718823;30;20421;-68
2021/09/27 14:03:05;;;;;;;6.22;4.45;;;20.30;78.70;;;;;;4718181;30;20429;-69
2021/09/27 14:05:31;;;;;;;7.90;3.50;;;20.30;78.30;;;;;;4718844;30;20048;-69
2021/09/27 14:07:58;;;;;;;7.68;4.20;;;20.20;78.30;;;;;;4718913;30;20049;-68
2021/09/27 14:10:24;;;;;;;9.02;4.43;;;20.30;78.40;;;;;;4719475;30;20082;-68
2021/09/27 14:12:50;;;;;;;8.93;4.35;;;20.20;78.30;;;;;;4718183;30;20061;-71
2021/09/27 14:15:16;;;;;;;5.65;4.68;;;20.20;78.30;;;;;;4717346;30;20057;-71
2021/09/27 14:17:41;;;;;;;5.78;4.18;;;20.20;78.30;;;;;;4718678;30;20060;-67
2021/09/27 14:20:08;;;;;;;7.88;4.30;;;20.20;78.40;;;;;;4718517;30;20063;-67
2021/09/27 14:22:35;;;;;;;6.28;4.25;;;20.20;78.40;;;;;;4718422;30;20147;-68
2021/09/27 14:25:03;;;;;;;8.65;4.78;;;20.20;78.60;;;;;;4718591;30;20045;-68
2021/09/27 14:27:29;;;;;;;7.63;4.65;;;20.20;78.80;;;;;;4718574;30;20140;-68
2021/09/27 14:29:55;;;;;;;12.55;5.32;;;20.20;79.10;;;;;;4718463;30;20478;-69
2021/09/27 14:32:27;;;;;;;12.13;4.90;;;20.20;79.40;;;;;;4717653;30;20118;-68
2021/09/27 14:34:53;;;;;;;12.55;5.53;;;20.10;79.50;;;;;;4718856;30;20128;-69
2021/09/27 14:37:19;;;;;;;8.57;5.38;;;20.20;79.70;;;;;;4718382;30;20049;-68
2021/09/27 14:39:46;;;;;;;15.93;5.53;;;20.20;79.80;;;;;;4721495;30;20136;-68
2021/09/27 14:42:11;;;;;;;11.43;5.00;;;20.20;79.90;;;;;;4721401;30;20061;-69
2021/09/27 14:44:37;;;;;;;9.68;5.20;;;20.20;80.00;;;;;;4718407;30;20052;-74
2021/09/27 14:47:03;;;;;;;15.43;7.07;;;20.20;80.20;;;;;;4710172;30;20049;-75
2021/09/27 14:49:29;;;;;;;5.45;3.10;;;20.20;80.60;;;;;;4704396;30;20057;-72
2021/09/27 14:51:55;;;;;;;7.15;2.97;;;20.10;80.60;;;;;;4684513;30;20127;-75
2021/09/27 14:54:20;;;;;;;4.45;2.13;;;20.00;80.70;;;;;;4703537;30;20053;-75
2021/09/27 14:56:46;;;;;;;3.22;1.70;;;20.10;81.00;;;;;;4704750;30;20501;-74
2021/09/27 14:59:12;;;;;;;3.13;1.50;;;20.00;81.30;;;;;;4704111;30;20053;-74
2021/09/27 15:01:38;;;;;;;4.00;1.50;;;20.00;81.20;;;;;;4704032;30;20065;-74
2021/09/27 15:04:04;;;;;;;3.85;0.90;;;20.00;81.40;;;;;;4703778;30;20053;-74
2021/09/27 15:06:32;;;;;;;3.45;1.80;;;20.00;81.50;;;;;;4703564;30;20513;-76
2021/09/27 15:08:58;;;;;;;2.35;1.63;;;20.00;81.70;;;;;;4703603;30;20122;-74
2021/09/27 15:11:24;;;;;;;2.20;1.40;;;20.00;82.10;;;;;;4704112;30;20103;-76
2021/09/27 15:13:50;;;;;;;3.38;2.13;;;20.00;82.20;;;;;;4703747;30;20131;-74
2021/09/27 15:16:16;;;;;;;4.13;2.20;;;20.00;82.60;;;;;;4703755;30;20053;-72
2021/09/27 15:18:42;;;;;;;4.07;2.20;;;20.00;82.50;;;;;;4703790;30;20054;-73
2021/09/27 15:21:09;;;;;;;6.05;2.47;;;19.90;82.80;;;;;;4703876;30;20065;-73
2021/09/27 15:23:42;;;;;;;4.38;2.30;;;19.90;82.30;;;;;;4703332;30;20069;-71
2021/09/27 15:26:28;;;;;;;6.40;2.00;;;19.90;82.10;;;;;;4703416;30;20486;-69
2021/09/27 15:28:57;;;;;;;5.15;1.85;;;19.90;81.90;;;;;;4719185;30;20057;-70
2021/09/27 15:31:24;;;;;;;11.32;2.60;;;19.90;81.90;;;;;;4717016;30;20054;-70
2021/09/27 15:33:51;;;;;;;7.40;1.75;;;19.90;82.00;;;;;;4706134;30;20108;-68
2021/09/27 15:36:20;;;;;;;8.45;2.00;;;19.90;81.90;;;;;;4702949;30;20065;-69
2021/09/27 15:38:51;;;;;;;8.68;2.20;;;19.90;81.90;;;;;;4720128;30;20057;-69
2021/09/27 15:41:17;;;;;;;5.90;1.75;;;19.90;81.80;;;;;;4720491;30;20099;-69
2021/09/27 15:43:43;;;;;;;1.95;1.38;;;19.90;81.80;;;;;;4720189;30;20081;-69
2021/09/27 15:46:10;;;;;;;4.80;1.95;;;19.90;81.80;;;;;;4719902;30;20123;-69
2021/09/27 15:48:35;;;;;;;5.38;1.90;;;19.90;81.70;;;;;;4720006;30;20201;-69
2021/09/27 15:51:02;;;;;;;4.60;1.70;;;19.90;81.70;;;;;;4720083;30;20211;-68
2021/09/27 15:53:28;;;;;;;3.85;1.80;;;19.90;81.70;;;;;;4720257;30;20053;-69
2021/09/27 15:55:54;;;;;;;4.45;1.50;;;19.90;81.70;;;;;;4720438;30;20056;-68
2021/09/27 15:58:21;;;;;;;8.90;1.95;;;19.90;81.60;;;;;;4720345;30;20060;-68
2021/09/27 16:00:47;;;;;;;4.35;1.95;;;19.90;81.60;;;;;;4720223;30;20060;-68
2021/09/27 16:03:14;;;;;;;4.03;1.60;;;19.90;81.50;;;;;;4720303;30;20335;-68
2021/09/27 16:05:43;;;;;;;5.28;1.60;;;19.90;81.50;;;;;;4720222;30;20049;-68
2021/09/27 16:08:10;;;;;;;4.43;1.40;;;20.00;81.50;;;;;;4720204;30;20116;-68
2021/09/27 16:10:36;;;;;;;4.40;1.95;;;20.00;81.40;;;;;;4720328;30;20056;-68
2021/09/27 16:13:02;;;;;;;7.75;1.60;;;19.90;81.30;;;;;;4719782;30;20462;-68
2021/09/27 16:15:32;;;;;;;2.88;1.30;;;20.00;81.30;;;;;;4720801;30;20229;-69
2021/09/27 16:17:59;;;;;;;3.33;1.50;;;19.90;81.10;;;;;;4720370;30;20109;-69
2021/09/27 16:20:29;;;;;;;3.72;1.50;;;19.90;81.10;;;;;;4719982;30;20061;-68
2021/09/27 16:22:55;;;;;;;4.15;1.67;;;19.90;81.10;;;;;;4719915;30;20048;-68
2021/09/27 16:25:21;;;;;;;7.03;1.50;;;19.90;81.00;;;;;;4719753;30;20075;-68
2021/09/27 16:27:47;;;;;;;6.00;1.77;;;19.90;80.80;;;;;;4720044;30;20045;-69
2021/09/27 16:30:14;;;;;;;5.43;1.45;;;19.90;80.60;;;;;;4720106;30;20041;-69
2021/09/27 16:32:40;;;;;;;6.90;1.88;;;19.90;80.50;;;;;;4719297;30;20085;-69
2021/09/27 16:35:06;;;;;;;9.77;1.67;;;19.90;80.50;;;;;;4719898;30;20107;-68
2021/09/27 16:37:32;;;;;;;4.95;1.30;;;19.90;80.20;;;;;;4719722;30;20381;-69
2021/09/27 16:39:57;;;;;;;4.22;1.65;;;19.90;80.20;;;;;;4720099;30;20136;-69
2021/09/27 16:42:25;;;;;;;4.45;1.65;;;19.90;80.30;;;;;;4712971;30;20042;-69
2021/09/27 16:44:50;;;;;;;5.72;1.30;;;19.80;80.10;;;;;;4701765;30;20136;-68
2021/09/27 16:47:17;;;;;;;4.78;1.10;;;19.80;80.00;;;;;;4701405;30;20136;-69
2021/09/27 16:49:45;;;;;;;6.60;1.33;;;19.80;79.90;;;;;;4702158;30;20053;-69
2021/09/27 16:52:12;;;;;;;4.90;1.42;;;19.80;79.70;;;;;;4705526;30;20466;-69
2021/09/27 16:54:38;;;;;;;4.78;1.52;;;19.70;79.30;;;;;;4719419;30;20461;-69
2021/09/27 16:57:05;;;;;;;4.93;1.10;;;19.70;79.50;;;;;;4719314;30;20351;-69
2021/09/27 16:59:31;;;;;;;3.83;1.13;;;19.70;79.30;;;;;;4719504;30;20134;-69
2021/09/27 17:01:57;;;;;;;4.88;0.93;;;19.70;79.40;;;;;;4717594;30;20057;-69
2021/09/27 17:04:23;;;;;;;6.03;1.27;;;19.70;79.20;;;;;;4701735;30;20053;-69
2021/09/27 17:06:49;;;;;;;4.82;1.00;;;19.70;79.40;;;;;;4701883;30;20045;-69
2021/09/27 17:09:14;;;;;;;5.53;1.35;;;19.70;79.40;;;;;;4701997;30;20049;-69
2021/09/27 17:11:41;;;;;;;4.35;0.90;;;19.60;79.20;;;;;;4701702;30;20056;-69
2021/09/27 17:19:28;;;;;;;8.32;0.85;;;19.60;79.20;;;;;;4707105;30;20057;-69
2021/09/27 17:21:57;;;;;;;4.60;1.40;;;19.60;79.00;;;;;;4701986;30;20370;-71
2021/09/27 17:24:23;;;;;;;5.28;1.35;;;19.60;78.90;;;;;;4700337;30;20157;-69
2021/09/27 17:26:51;;;;;;;6.45;1.17;;;19.60;78.50;;;;;;4690230;30;20501;-69
2021/09/27 17:29:18;;;;;;;4.18;0.88;;;19.60;77.90;;;;;;4701634;30;20390;-69
2021/09/27 17:31:46;;;;;;;4.88;1.02;;;19.60;76.70;;;;;;4701661;30;20132;-69
2021/09/27 17:34:12;;;;;;;6.05;1.08;;;19.50;76.20;;;;;;4718453;30;20122;-72
2021/09/27 17:36:39;;;;;;;5.68;1.50;;;19.50;77.30;;;;;;4719038;30;20045;-69
2021/09/27 17:39:11;;;;;;;15.52;2.05;;;19.60;77.90;;;;;;4708002;30;20092;-70
2021/09/27 17:41:38;;;;;;;11.73;1.30;;;19.60;77.50;;;;;;4701779;30;20062;-69
2021/09/27 17:44:04;;;;;;;13.18;1.40;;;19.60;78.30;;;;;;4716419;30;20474;-70
2021/09/27 17:46:30;;;;;;;9.70;1.20;;;19.60;78.10;;;;;;4711551;30;20077;-69
2021/09/27 17:48:57;;;;;;;9.38;1.85;;;19.60;78.40;;;;;;4701014;30;20096;-70
2021/09/27 17:51:23;;;;;;;13.18;1.45;;;19.60;78.40;;;;;;4701584;30;20053;-70
2021/09/27 17:53:49;;;;;;;7.80;1.30;;;19.60;78.60;;;;;;4714003;30;20485;-71
2021/09/27 17:56:15;;;;;;;8.55;1.35;;;19.60;78.30;;;;;;4717861;30;20617;-72
2021/09/27 17:58:41;;;;;;;4.10;0.95;;;19.70;78.60;;;;;;4719053;30;20053;-71
2021/09/27 18:01:07;;;;;;;10.55;1.30;;;19.70;78.70;;;;;;4719326;30;20061;-72
